sensor_id;sensor_type;location;lat;lon;timestamp;pressure;altitude;pressure_sealevel;temperature;humidity
19600;BME280;9947;57.722;12.012;2023-04-08T00:01:17;102387.84;;;4.41;97.99
19600;BME280;9947;57.722;12.012;2023-04-08T00:04:03;102394.03;;;4.45;98.36
19600;BME280;9947;57.722;12.012;2023-04-08T00:06:44;102386.09;;;4.40;98.40
19600;BME280;9947;57.722;12.012;2023-04-08T00:09:19;102392.31;;;4.41;98.66
19600;BME280;9947;57.722;12.012;2023-04-08T00:11:58;102394.06;;;4.43;99.70
19600;BME280;9947;57.722;12.012;2023-04-08T00:14:39;102384.28;;;4.41;99.10
19600;BME280;9947;57.722;12.012;2023-04-08T00:17:10;102389.69;;;4.39;99.81
19600;BME280;9947;57.722;12.012;2023-04-08T00:20:00;102386.09;;;4.40;99.80
19600;BME280;9947;57.722;12.012;2023-04-08T00:22:47;102382.56;;;4.38;99.08
19600;BME280;9947;57.722;12.012;2023-04-08T00:25:50;102379.84;;;4.40;99.00
19600;BME280;9947;57.722;12.012;2023-04-08T00:28:32;102382.56;;;4.38;99.20
19600;BME280;9947;57.722;12.012;2023-04-08T00:33:50;102383.44;;;4.39;99.66
19600;BME280;9947;57.722;12.012;2023-04-08T00:36:18;102379.13;;;4.33;99.31
19600;BME280;9947;57.722;12.012;2023-04-08T00:38:45;102376.50;;;4.31;100.00
19600;BME280;9947;57.722;12.012;2023-04-08T00:41:12;102376.31;;;4.39;99.01
19600;BME280;9947;57.722;12.012;2023-04-08T00:43:57;102369.22;;;4.37;98.99
19600;BME280;9947;57.722;12.012;2023-04-08T00:46:56;102366.50;;;4.38;98.57
19600;BME280;9947;57.722;12.012;2023-04-08T00:56:13;102372.03;;;4.32;99.28
19600;BME280;9947;57.722;12.012;2023-04-08T00:58:42;102363.88;;;4.37;99.55
19600;BME280;9947;57.722;12.012;2023-04-08T01:01:49;102372.22;;;4.24;100.00
19600;BME280;9947;57.722;12.012;2023-04-08T01:04:32;102379.38;;;4.24;100.00
19600;BME280;9947;57.722;12.012;2023-04-08T01:10:05;102362.44;;;4.23;100.00
19600;BME280;9947;57.722;12.012;2023-04-08T01:12:49;102376.66;;;4.25;100.00
19600;BME280;9947;57.722;12.012;2023-04-08T01:15:22;102365.19;;;4.20;100.00
19600;BME280;9947;57.722;12.012;2023-04-08T01:17:58;102374.09;;;4.21;100.00
19600;BME280;9947;57.722;12.012;2023-04-08T01:20:31;102375.00;;;4.20;100.00
19600;BME280;9947;57.722;12.012;2023-04-08T01:23:08;102373.94;;;4.27;100.00
19600;BME280;9947;57.722;12.012;2023-04-08T01:25:53;102380.25;;;4.24;100.00
19600;BME280;9947;57.722;12.012;2023-04-08T01:28:25;102384.56;;;4.30;100.00
19600;BME280;9947;57.722;12.012;2023-04-08T01:31:04;102382.00;;;4.25;100.00
19600;BME280;9947;57.722;12.012;2023-04-08T01:33:52;102383.03;;;4.20;100.00
19600;BME280;9947;57.722;12.012;2023-04-08T01:36:29;102382.84;;;4.27;100.00
19600;BME280;9947;57.722;12.012;2023-04-08T01:39:27;102379.19;;;4.31;100.00
19600;BME280;9947;57.722;12.012;2023-04-08T01:42:15;102386.63;;;4.19;100.00
19600;BME280;9947;57.722;12.012;2023-04-08T01:44:56;102389.19;;;4.23;100.00
19600;BME280;9947;57.722;12.012;2023-04-08T01:47:43;102385.31;;;4.35;100.00
19600;BME280;9947;57.722;12.012;2023-04-08T01:50:34;102393.69;;;4.23;100.00
19600;BME280;9947;57.722;12.012;2023-04-08T01:53:06;102397.13;;;4.28;100.00
19600;BME280;9947;57.722;12.012;2023-04-08T01:55:39;102398.19;;;4.21;100.00
19600;BME280;9947;57.722;12.012;2023-04-08T01:58:24;102398.09;;;4.24;100.00
19600;BME280;9947;57.722;12.012;2023-04-08T02:01:10;102397.16;;;4.26;100.00
19600;BME280;9947;57.722;12.012;2023-04-08T02:03:46;102388.19;;;4.27;100.00
19600;BME280;9947;57.722;12.012;2023-04-08T02:06:22;102397.22;;;4.23;100.00
19600;BME280;9947;57.722;12.012;2023-04-08T02:08:56;102393.75;;;4.20;100.00
19600;BME280;9947;57.722;12.012;2023-04-08T02:11:38;102397.31;;;4.20;100.00
19600;BME280;9947;57.722;12.012;2023-04-08T02:14:29;102401.84;;;4.17;100.00
19600;BME280;9947;57.722;12.012;2023-04-08T02:17:38;102399.06;;;4.21;100.00
19600;BME280;9947;57.722;12.012;2023-04-08T02:20:46;102402.75;;;4.17;100.00
19600;BME280;9947;57.722;12.012;2023-04-08T02:23:44;102406.25;;;4.19;100.00
19600;BME280;9947;57.722;12.012;2023-04-08T02:26:32;102407.16;;;4.18;100.00
19600;BME280;9947;57.722;12.012;2023-04-08T02:29:11;102414.16;;;4.24;100.00
19600;BME280;9947;57.722;12.012;2023-04-08T02:32:17;102411.66;;;4.18;100.00
19600;BME280;9947;57.722;12.012;2023-04-08T02:35:00;102424.16;;;4.16;100.00
19600;BME280;9947;57.722;12.012;2023-04-08T02:38:17;102417.91;;;4.17;100.00
19600;BME280;9947;57.722;12.012;2023-04-08T02:41:19;102423.09;;;4.24;100.00
19600;BME280;9947;57.722;12.012;2023-04-08T02:44:08;102422.34;;;4.18;100.00
19600;BME280;9947;57.722;12.012;2023-04-08T02:52:00;102429.38;;;4.22;100.00
19600;BME280;9947;57.722;12.012;2023-04-08T02:54:29;102437.56;;;4.14;100.00
19600;BME280;9947;57.722;12.012;2023-04-08T02:56:59;102436.41;;;4.27;100.00
19600;BME280;9947;57.722;12.012;2023-04-08T02:59:31;102440.06;;;4.23;100.00
19600;BME280;9947;57.722;12.012;2023-04-08T03:02:06;102440.28;;;4.13;100.00
19600;BME280;9947;57.722;12.012;2023-04-08T03:04:41;102448.28;;;4.14;100.00
19600;BME280;9947;57.722;12.012;2023-04-08T03:07:18;102439.22;;;4.21;100.00
19600;BME280;9947;57.722;12.012;2023-04-08T03:09:58;102448.25;;;4.17;100.00
19600;BME280;9947;57.722;12.012;2023-04-08T03:12:26;102447.28;;;4.20;100.00
19600;BME280;9947;57.722;12.012;2023-04-08T03:15:12;102449.13;;;4.18;100.00
19600;BME280;9947;57.722;12.012;2023-04-08T03:18:24;102451.88;;;4.13;100.00
19600;BME280;9947;57.722;12.012;2023-04-08T03:21:21;102447.38;;;4.15;100.00
19600;BME280;9947;57.722;12.012;2023-04-08T03:27:22;102453.63;;;4.14;100.00
19600;BME280;9947;57.722;12.012;2023-04-08T03:29:49;102457.19;;;4.15;100.00
19600;BME280;9947;57.722;12.012;2023-04-08T03:32:22;102455.44;;;4.14;100.00
19600;BME280;9947;57.722;12.012;2023-04-08T03:34:50;102451.88;;;4.13;100.00
19600;BME280;9947;57.722;12.012;2023-04-08T03:37:19;102452.81;;;4.11;100.00
19600;BME280;9947;57.722;12.012;2023-04-08T03:39:49;102454.47;;;4.18;100.00
19600;BME280;9947;57.722;12.012;2023-04-08T03:42:41;102454.31;;;4.24;100.00
19600;BME280;9947;57.722;12.012;2023-04-08T03:45:11;102455.31;;;4.20;100.00
19600;BME280;9947;57.722;12.012;2023-04-08T03:47:41;102455.25;;;4.23;100.00
19600;BME280;9947;57.722;12.012;2023-04-08T03:50:11;102457.13;;;4.19;100.00
19600;BME280;9947;57.722;12.012;2023-04-08T03:53:03;102459.88;;;4.15;100.00
19600;BME280;9947;57.722;12.012;2023-04-08T03:55:48;102456.16;;;4.22;100.00
19600;BME280;9947;57.722;12.012;2023-04-08T03:58:32;102465.22;;;4.15;100.00
19600;BME280;9947;57.722;12.012;2023-04-08T04:01:23;102462.59;;;4.13;100.00
19600;BME280;9947;57.722;12.012;2023-04-08T04:04:03;102464.25;;;4.19;100.00
19600;BME280;9947;57.722;12.012;2023-04-08T04:06:37;102477.56;;;4.22;100.00
19600;BME280;9947;57.722;12.012;2023-04-08T04:09:16;102464.34;;;4.14;100.00
19600;BME280;9947;57.722;12.012;2023-04-08T04:11:50;102472.28;;;4.19;100.00
19600;BME280;9947;57.722;12.012;2023-04-08T04:14:21;102476.84;;;4.14;100.00
19600;BME280;9947;57.722;12.012;2023-04-08T04:17:03;102478.56;;;4.18;100.00
19600;BME280;9947;57.722;12.012;2023-04-08T04:22:37;102484.00;;;4.13;100.00
19600;BME280;9947;57.722;12.012;2023-04-08T04:25:26;102479.47;;;4.17;100.00
19600;BME280;9947;57.722;12.012;2023-04-08T04:28:16;102481.38;;;4.10;100.00
19600;BME280;9947;57.722;12.012;2023-04-08T04:30:59;102475.03;;;4.14;100.00
19600;BME280;9947;57.722;12.012;2023-04-08T04:33:31;102483.03;;;4.17;100.00
19600;BME280;9947;57.722;12.012;2023-04-08T04:36:12;102480.34;;;4.17;100.00
19600;BME280;9947;57.722;12.012;2023-04-08T04:38:39;102478.63;;;4.13;100.00
19600;BME280;9947;57.722;12.012;2023-04-08T04:41:11;102489.28;;;4.18;100.00
19600;BME280;9947;57.722;12.012;2023-04-08T04:43:54;102478.41;;;4.24;100.00
19600;BME280;9947;57.722;12.012;2023-04-08T04:46:27;102486.66;;;4.13;100.00
19600;BME280;9947;57.722;12.012;2023-04-08T04:48:58;102486.63;;;4.15;100.00
19600;BME280;9947;57.722;12.012;2023-04-08T04:51:27;102487.50;;;4.15;100.00
19600;BME280;9947;57.722;12.012;2023-04-08T04:54:10;102499.09;;;4.17;100.00
19600;BME280;9947;57.722;12.012;2023-04-08T04:56:41;102492.75;;;4.21;100.00
19600;BME280;9947;57.722;12.012;2023-04-08T04:59:18;102491.72;;;4.27;100.00
19600;BME280;9947;57.722;12.012;2023-04-08T05:02:12;102500.91;;;4.17;100.00
19600;BME280;9947;57.722;12.012;2023-04-08T05:04:54;102498.94;;;4.23;100.00
19600;BME280;9947;57.722;12.012;2023-04-08T05:07:24;102493.72;;;4.19;100.00
19600;BME280;9947;57.722;12.012;2023-04-08T05:10:01;102491.88;;;4.21;100.00
19600;BME280;9947;57.722;12.012;2023-04-08T05:12:32;102499.94;;;4.19;100.00
19600;BME280;9947;57.722;12.012;2023-04-08T05:15:19;102494.56;;;4.21;100.00
19600;BME280;9947;57.722;12.012;2023-04-08T05:17:51;102504.41;;;4.19;100.00
19600;BME280;9947;57.722;12.012;2023-04-08T05:20:22;102503.47;;;4.21;100.00
19600;BME280;9947;57.722;12.012;2023-04-08T05:23:16;102502.66;;;4.18;100.00
19600;BME280;9947;57.722;12.012;2023-04-08T05:25:48;102507.06;;;4.20;100.00
19600;BME280;9947;57.722;12.012;2023-04-08T05:28:19;102511.47;;;4.23;100.00
19600;BME280;9947;57.722;12.012;2023-04-08T05:31:03;102515.84;;;4.25;100.00
19600;BME280;9947;57.722;12.012;2023-04-08T05:33:33;102515.94;;;4.22;100.00
19600;BME280;9947;57.722;12.012;2023-04-08T05:36:03;102508.75;;;4.24;100.00
19600;BME280;9947;57.722;12.012;2023-04-08T05:38:34;102511.31;;;4.29;100.00
19600;BME280;9947;57.722;12.012;2023-04-08T05:41:02;102505.09;;;4.28;100.00
19600;BME280;9947;57.722;12.012;2023-04-08T05:43:33;102504.19;;;4.28;100.00
19600;BME280;9947;57.722;12.012;2023-04-08T05:46:05;102509.56;;;4.28;100.00
19600;BME280;9947;57.722;12.012;2023-04-08T05:48:52;102505.91;;;4.30;100.00
19600;BME280;9947;57.722;12.012;2023-04-08T05:51:33;102506.81;;;4.31;100.00
19600;BME280;9947;57.722;12.012;2023-04-08T05:54:28;102510.31;;;4.33;100.00
19600;BME280;9947;57.722;12.012;2023-04-08T05:57:07;102515.56;;;4.38;100.00
19600;BME280;9947;57.722;12.012;2023-04-08T05:59:37;102509.25;;;4.40;100.00
19600;BME280;9947;57.722;12.012;2023-04-08T06:02:12;102519.78;;;4.49;100.00
19600;BME280;9947;57.722;12.012;2023-04-08T06:04:44;102515.28;;;4.51;100.00
19600;BME280;9947;57.722;12.012;2023-04-08T06:07:12;102511.03;;;4.41;100.00
19600;BME280;9947;57.722;12.012;2023-04-08T06:09:43;102518.97;;;4.46;100.00
19600;BME280;9947;57.722;12.012;2023-04-08T06:12:41;102530.50;;;4.49;100.00
19600;BME280;9947;57.722;12.012;2023-04-08T06:15:25;102520.84;;;4.41;100.00
19600;BME280;9947;57.722;12.012;2023-04-08T06:18:15;102526.63;;;4.61;100.00
19600;BME280;9947;57.722;12.012;2023-04-08T06:24:30;102534.97;;;4.49;100.00
19600;BME280;9947;57.722;12.012;2023-04-08T06:27:02;102538.53;;;4.49;100.00
19600;BME280;9947;57.722;12.012;2023-04-08T06:29:39;102532.16;;;4.55;100.00
19600;BME280;9947;57.722;12.012;2023-04-08T06:32:15;102540.25;;;4.52;100.00
19600;BME280;9947;57.722;12.012;2023-04-08T06:34:50;102549.06;;;4.57;100.00
19600;BME280;9947;57.722;12.012;2023-04-08T06:37:33;102544.03;;;4.42;100.00
19600;BME280;9947;57.722;12.012;2023-04-08T06:40:28;102547.28;;;4.56;100.00
19600;BME280;9947;57.722;12.012;2023-04-08T06:43:18;102549.09;;;4.55;100.00
19600;BME280;9947;57.722;12.012;2023-04-08T06:45:48;102544.81;;;4.48;100.00
19600;BME280;9947;57.722;12.012;2023-04-08T06:48:31;102549.88;;;4.60;100.00
19600;BME280;9947;57.722;12.012;2023-04-08T06:51:16;102549.69;;;4.68;100.00
19600;BME280;9947;57.722;12.012;2023-04-08T06:54:06;102554.94;;;4.73;100.00
19600;BME280;9947;57.722;12.012;2023-04-08T06:56:45;102551.59;;;4.63;100.00
19600;BME280;9947;57.722;12.012;2023-04-08T06:59:20;102566.44;;;4.78;100.00
19600;BME280;9947;57.722;12.012;2023-04-08T07:01:49;102564.06;;;4.64;100.00
19600;BME280;9947;57.722;12.012;2023-04-08T07:04:18;102560.41;;;4.68;100.00
19600;BME280;9947;57.722;12.012;2023-04-08T07:06:51;102557.56;;;4.76;100.00
19600;BME280;9947;57.722;12.012;2023-04-08T07:09:36;102554.03;;;4.74;100.00
19600;BME280;9947;57.722;12.012;2023-04-08T07:12:19;102551.00;;;4.87;100.00
19600;BME280;9947;57.722;12.012;2023-04-08T07:14:55;102559.84;;;4.91;100.00
19600;BME280;9947;57.722;12.012;2023-04-08T07:17:24;102562.47;;;4.94;100.00
19600;BME280;9947;57.722;12.012;2023-04-08T07:19:59;102558.72;;;5.01;100.00
19600;BME280;9947;57.722;12.012;2023-04-08T07:22:35;102554.41;;;4.95;100.00
19600;BME280;9947;57.722;12.012;2023-04-08T07:25:06;102548.88;;;5.02;100.00
19600;BME280;9947;57.722;12.012;2023-04-08T07:27:39;102565.97;;;4.98;100.00
19600;BME280;9947;57.722;12.012;2023-04-08T07:30:10;102554.28;;;5.00;100.00
19600;BME280;9947;57.722;12.012;2023-04-08T07:33:04;102557.25;;;5.25;100.00
19600;BME280;9947;57.722;12.012;2023-04-08T07:35:36;102549.25;;;5.23;100.00
19600;BME280;9947;57.722;12.012;2023-04-08T07:38:03;102552.09;;;5.16;100.00
19600;BME280;9947;57.722;12.012;2023-04-08T07:40:38;102558.00;;;5.30;100.00
19600;BME280;9947;57.722;12.012;2023-04-08T07:45:44;102558.63;;;5.40;100.00
19600;BME280;9947;57.722;12.012;2023-04-08T07:48:31;102556.22;;;5.29;100.00
19600;BME280;9947;57.722;12.012;2023-04-08T07:51:06;102564.91;;;5.39;100.00
19600;BME280;9947;57.722;12.012;2023-04-08T07:53:35;102563.59;;;5.55;100.00
19600;BME280;9947;57.722;12.012;2023-04-08T07:56:11;102569.00;;;5.53;100.00
19600;BME280;9947;57.722;12.012;2023-04-08T07:58:38;102567.88;;;5.62;100.00
19600;BME280;9947;57.722;12.012;2023-04-08T08:03:43;102574.53;;;5.80;100.00
19600;BME280;9947;57.722;12.012;2023-04-08T08:06:23;102567.75;;;6.01;100.00
19600;BME280;9947;57.722;12.012;2023-04-08T08:08:57;102570.00;;;6.14;100.00
19600;BME280;9947;57.722;12.012;2023-04-08T08:11:27;102579.31;;;6.03;100.00
19600;BME280;9947;57.722;12.012;2023-04-08T08:16:57;102587.00;;;6.15;100.00
19600;BME280;9947;57.722;12.012;2023-04-08T08:19:44;102590.28;;;6.26;100.00
19600;BME280;9947;57.722;12.012;2023-04-08T08:22:22;102590.88;;;6.36;100.00
19600;BME280;9947;57.722;12.012;2023-04-08T08:25:04;102586.81;;;6.52;100.00
19600;BME280;9947;57.722;12.012;2023-04-08T08:28:20;102589.41;;;6.55;100.00
19600;BME280;9947;57.722;12.012;2023-04-08T08:36:53;102588.97;;;6.69;100.00
19600;BME280;9947;57.722;12.012;2023-04-08T08:39:25;102596.94;;;6.42;100.00
19600;BME280;9947;57.722;12.012;2023-04-08T08:42:02;102601.31;;;6.74;100.00
19600;BME280;9947;57.722;12.012;2023-04-08T08:44:44;102596.19;;;6.67;100.00
19600;BME280;9947;57.722;12.012;2023-04-08T08:47:26;102594.78;;;6.83;100.00
19600;BME280;9947;57.722;12.012;2023-04-08T08:50:08;102608.34;;;7.08;100.00
19600;BME280;9947;57.722;12.012;2023-04-08T08:53:20;102598.81;;;7.24;100.00
19600;BME280;9947;57.722;12.012;2023-04-08T08:55:51;102607.41;;;7.09;100.00
19600;BME280;9947;57.722;12.012;2023-04-08T08:58:20;102601.47;;;7.26;100.00
19600;BME280;9947;57.722;12.012;2023-04-08T09:01:34;102605.50;;;7.39;100.00
19600;BME280;9947;57.722;12.012;2023-04-08T09:04:31;102604.97;;;7.28;99.61
19600;BME280;9947;57.722;12.012;2023-04-08T09:07:15;102609.47;;;7.55;96.80
19600;BME280;9947;57.722;12.012;2023-04-08T09:09:53;102607.81;;;7.76;94.71
19600;BME280;9947;57.722;12.012;2023-04-08T09:12:54;102609.66;;;7.74;94.60
19600;BME280;9947;57.722;12.012;2023-04-08T09:15:23;102618.47;;;7.53;95.27
19600;BME280;9947;57.722;12.012;2023-04-08T09:18:00;102607.41;;;7.62;95.50
19600;BME280;9947;57.722;12.012;2023-04-08T09:20:52;102603.59;;;7.94;94.68
19600;BME280;9947;57.722;12.012;2023-04-08T09:23:39;102597.16;;;7.73;94.68
19600;BME280;9947;57.722;12.012;2023-04-08T09:26:23;102601.34;;;7.82;93.83
19600;BME280;9947;57.722;12.012;2023-04-08T09:29:00;102592.09;;;7.89;93.86
19600;BME280;9947;57.722;12.012;2023-04-08T09:31:32;102591.44;;;8.07;92.78
19600;BME280;9947;57.722;12.012;2023-04-08T09:34:13;102595.03;;;8.08;92.27
19600;BME280;9947;57.722;12.012;2023-04-08T09:36:48;102591.53;;;8.04;92.95
19600;BME280;9947;57.722;12.012;2023-04-08T09:39:27;102592.34;;;8.06;91.86
19600;BME280;9947;57.722;12.012;2023-04-08T09:42:20;102588.91;;;8.02;92.16
19600;BME280;9947;57.722;12.012;2023-04-08T09:44:54;102593.28;;;8.05;92.50
19600;BME280;9947;57.722;12.012;2023-04-08T09:47:56;102585.81;;;8.13;91.74
19600;BME280;9947;57.722;12.012;2023-04-08T09:50:39;102582.31;;;8.11;92.12
19600;BME280;9947;57.722;12.012;2023-04-08T09:53:16;102592.47;;;8.51;90.59
19600;BME280;9947;57.722;12.012;2023-04-08T09:56:11;102588.41;;;8.16;91.97
19600;BME280;9947;57.722;12.012;2023-04-08T09:59:08;102591.16;;;8.40;91.66
19600;BME280;9947;57.722;12.012;2023-04-08T10:04:15;102579.94;;;8.74;88.87
19600;BME280;9947;57.722;12.012;2023-04-08T10:06:53;102581.25;;;8.63;89.32
19600;BME280;9947;57.722;12.012;2023-04-08T10:09:44;102576.91;;;8.81;89.01
19600;BME280;9947;57.722;12.012;2023-04-08T10:12:26;102575.69;;;8.90;87.56
19600;BME280;9947;57.722;12.012;2023-04-08T10:18:34;102569.94;;;8.76;89.02
19600;BME280;9947;57.722;12.012;2023-04-08T10:21:36;102575.47;;;8.73;91.49
19600;BME280;9947;57.722;12.012;2023-04-08T10:24:16;102569.19;;;8.72;91.15
19600;BME280;9947;57.722;12.012;2023-04-08T10:27:01;102566.13;;;8.81;91.08
19600;BME280;9947;57.722;12.012;2023-04-08T10:29:44;102566.47;;;8.95;90.27
19600;BME280;9947;57.722;12.012;2023-04-08T10:32:30;102568.47;;;9.12;88.79
19600;BME280;9947;57.722;12.012;2023-04-08T10:35:29;102567.53;;;9.34;87.32
19600;BME280;9947;57.722;12.012;2023-04-08T10:38:24;102559.66;;;9.29;87.33
19600;BME280;9947;57.722;12.012;2023-04-08T10:41:17;102559.03;;;9.22;88.07
19600;BME280;9947;57.722;12.012;2023-04-08T10:43:51;102559.16;;;9.41;87.84
19600;BME280;9947;57.722;12.012;2023-04-08T10:46:26;102551.19;;;9.38;87.78
19600;BME280;9947;57.722;12.012;2023-04-08T10:49:06;102549.75;;;9.50;88.32
19600;BME280;9947;57.722;12.012;2023-04-08T10:51:41;102556.50;;;9.60;88.43
19600;BME280;9947;57.722;12.012;2023-04-08T10:54:11;102552.06;;;9.59;88.08
19600;BME280;9947;57.722;12.012;2023-04-08T10:56:45;102546.78;;;9.56;87.65
19600;BME280;9947;57.722;12.012;2023-04-08T10:59:38;102551.09;;;9.80;86.78
19600;BME280;9947;57.722;12.012;2023-04-08T11:02:21;102547.66;;;9.97;85.72
19600;BME280;9947;57.722;12.012;2023-04-08T11:04:55;102547.06;;;9.91;85.53
19600;BME280;9947;57.722;12.012;2023-04-08T11:07:30;102541.03;;;10.04;85.46
19600;BME280;9947;57.722;12.012;2023-04-08T11:10:07;102540.47;;;10.16;85.10
19600;BME280;9947;57.722;12.012;2023-04-08T11:12:47;102538.50;;;10.20;83.85
19600;BME280;9947;57.722;12.012;2023-04-08T11:15:49;102538.03;;;10.49;83.71
19600;BME280;9947;57.722;12.012;2023-04-08T11:18:20;102525.38;;;10.69;82.19
19600;BME280;9947;57.722;12.012;2023-04-08T11:20:52;102528.34;;;10.81;81.21
19600;BME280;9947;57.722;12.012;2023-04-08T11:26:07;102529.63;;;10.92;79.88
19600;BME280;9947;57.722;12.012;2023-04-08T11:28:52;102524.19;;;10.93;79.16
19600;BME280;9947;57.722;12.012;2023-04-08T11:31:49;102530.16;;;11.00;79.86
19600;BME280;9947;57.722;12.012;2023-04-08T11:34:28;102525.97;;;10.93;80.84
19600;BME280;9947;57.722;12.012;2023-04-08T11:37:09;102524.81;;;11.16;81.29
19600;BME280;9947;57.722;12.012;2023-04-08T11:39:44;102525.16;;;11.44;80.80
19600;BME280;9947;57.722;12.012;2023-04-08T11:42:28;102518.38;;;11.18;80.27
19600;BME280;9947;57.722;12.012;2023-04-08T11:45:10;102520.22;;;11.35;80.55
19600;BME280;9947;57.722;12.012;2023-04-08T11:47:40;102523.97;;;11.32;79.75
19600;BME280;9947;57.722;12.012;2023-04-08T11:50:10;102529.94;;;11.39;80.43
19600;BME280;9947;57.722;12.012;2023-04-08T11:52:51;102518.06;;;11.41;79.90
19600;BME280;9947;57.722;12.012;2023-04-08T11:55:34;102520.63;;;11.62;78.44
19600;BME280;9947;57.722;12.012;2023-04-08T11:58:03;102516.31;;;11.58;77.98
19600;BME280;9947;57.722;12.012;2023-04-08T12:00:34;102522.47;;;11.61;77.96
19600;BME280;9947;57.722;12.012;2023-04-08T12:03:08;102523.16;;;11.65;78.33
19600;BME280;9947;57.722;12.012;2023-04-08T12:05:36;102516.78;;;11.66;78.80
19600;BME280;9947;57.722;12.012;2023-04-08T12:08:06;102518.13;;;11.92;77.20
19600;BME280;9947;57.722;12.012;2023-04-08T12:10:42;102518.63;;;12.00;77.16
19600;BME280;9947;57.722;12.012;2023-04-08T12:13:12;102523.19;;;12.15;74.78
19600;BME280;9947;57.722;12.012;2023-04-08T12:15:41;102521.09;;;11.87;73.94
19600;BME280;9947;57.722;12.012;2023-04-08T12:18:11;102514.47;;;11.93;73.95
19600;BME280;9947;57.722;12.012;2023-04-08T12:20:43;102515.13;;;12.14;72.77
19600;BME280;9947;57.722;12.012;2023-04-08T12:23:15;102520.34;;;12.34;71.58
19600;BME280;9947;57.722;12.012;2023-04-08T12:25:58;102506.56;;;12.21;72.62
19600;BME280;9947;57.722;12.012;2023-04-08T12:28:35;102514.66;;;12.39;72.01
19600;BME280;9947;57.722;12.012;2023-04-08T12:31:11;102511.16;;;12.37;72.15
19600;BME280;9947;57.722;12.012;2023-04-08T12:33:47;102515.03;;;11.99;73.74
19600;BME280;9947;57.722;12.012;2023-04-08T12:36:19;102508.84;;;12.13;73.81
19600;BME280;9947;57.722;12.012;2023-04-08T12:38:49;102510.63;;;12.30;72.10
19600;BME280;9947;57.722;12.012;2023-04-08T12:41:21;102507.31;;;12.41;71.60
19600;BME280;9947;57.722;12.012;2023-04-08T12:47:09;102501.22;;;12.04;74.17
19600;BME280;9947;57.722;12.012;2023-04-08T12:49:50;102499.75;;;11.81;75.87
19600;BME280;9947;57.722;12.012;2023-04-08T12:52:27;102509.22;;;11.90;75.68
19600;BME280;9947;57.722;12.012;2023-04-08T12:55:01;102491.13;;;11.90;75.90
19600;BME280;9947;57.722;12.012;2023-04-08T12:57:34;102489.06;;;12.11;74.16
19600;BME280;9947;57.722;12.012;2023-04-08T13:00:04;102499.97;;;11.94;76.01
19600;BME280;9947;57.722;12.012;2023-04-08T13:05:12;102493.75;;;12.25;75.49
19600;BME280;9947;57.722;12.012;2023-04-08T13:08:03;102491.88;;;12.10;75.34
19600;BME280;9947;57.722;12.012;2023-04-08T13:10:40;102499.38;;;12.04;75.08
19600;BME280;9947;57.722;12.012;2023-04-08T13:13:11;102490.25;;;11.90;76.97
19600;BME280;9947;57.722;12.012;2023-04-08T13:15:47;102500.84;;;11.77;77.08
19600;BME280;9947;57.722;12.012;2023-04-08T13:18:15;102497.28;;;11.77;77.50
19600;BME280;9947;57.722;12.012;2023-04-08T13:20:49;102495.38;;;11.79;77.05
19600;BME280;9947;57.722;12.012;2023-04-08T13:23:20;102492.88;;;11.91;77.89
19600;BME280;9947;57.722;12.012;2023-04-08T13:26:16;102496.19;;;11.81;77.53
19600;BME280;9947;57.722;12.012;2023-04-08T13:29:14;102493.72;;;12.09;76.30
19600;BME280;9947;57.722;12.012;2023-04-08T13:31:42;102487.50;;;12.23;76.17
19600;BME280;9947;57.722;12.012;2023-04-08T13:34:11;102490.50;;;12.34;74.38
19600;BME280;9947;57.722;12.012;2023-04-08T13:36:49;102484.72;;;12.40;73.47
19600;BME280;9947;57.722;12.012;2023-04-08T13:39:26;102483.06;;;12.69;72.73
19600;BME280;9947;57.722;12.012;2023-04-08T13:42:07;102479.03;;;12.45;72.80
19600;BME280;9947;57.722;12.012;2023-04-08T13:44:38;102482.47;;;12.64;72.00
19600;BME280;9947;57.722;12.012;2023-04-08T13:47:06;102480.56;;;12.96;70.62
19600;BME280;9947;57.722;12.012;2023-04-08T13:49:34;102473.50;;;12.93;70.91
19600;BME280;9947;57.722;12.012;2023-04-08T13:52:03;102474.28;;;12.95;69.68
19600;BME280;9947;57.722;12.012;2023-04-08T13:54:44;102472.03;;;12.88;70.41
19600;BME280;9947;57.722;12.012;2023-04-08T13:57:12;102474.03;;;12.69;71.27
19600;BME280;9947;57.722;12.012;2023-04-08T13:59:42;102478.19;;;12.60;71.62
19600;BME280;9947;57.722;12.012;2023-04-08T14:02:11;102478.63;;;12.52;72.46
19600;BME280;9947;57.722;12.012;2023-04-08T14:04:41;102467.00;;;12.50;72.81
19600;BME280;9947;57.722;12.012;2023-04-08T14:07:10;102478.06;;;12.46;73.22
19600;BME280;9947;57.722;12.012;2023-04-08T14:09:41;102469.75;;;12.64;72.08
19600;BME280;9947;57.722;12.012;2023-04-08T14:12:08;102464.53;;;12.77;71.73
19600;BME280;9947;57.722;12.012;2023-04-08T14:14:44;102464.94;;;12.85;71.44
19600;BME280;9947;57.722;12.012;2023-04-08T14:17:13;102472.09;;;12.86;71.38
19600;BME280;9947;57.722;12.012;2023-04-08T14:19:44;102472.00;;;13.04;69.50
19600;BME280;9947;57.722;12.012;2023-04-08T14:22:12;102474.81;;;13.02;69.82
19600;BME280;9947;57.722;12.012;2023-04-08T14:24:49;102470.88;;;12.92;70.72
19600;BME280;9947;57.722;12.012;2023-04-08T14:27:20;102472.22;;;13.15;68.98
19600;BME280;9947;57.722;12.012;2023-04-08T14:29:49;102478.50;;;13.01;70.12
19600;BME280;9947;57.722;12.012;2023-04-08T14:32:20;102467.13;;;12.79;69.95
19600;BME280;9947;57.722;12.012;2023-04-08T14:34:50;102472.91;;;12.73;71.20
19600;BME280;9947;57.722;12.012;2023-04-08T14:37:22;102462.31;;;12.84;69.95
19600;BME280;9947;57.722;12.012;2023-04-08T14:44:05;102461.16;;;12.72;69.86
19600;BME280;9947;57.722;12.012;2023-04-08T14:46:54;102464.53;;;12.61;70.37
19600;BME280;9947;57.722;12.012;2023-04-08T14:49:26;102453.47;;;12.49;71.38
19600;BME280;9947;57.722;12.012;2023-04-08T14:51:55;102457.97;;;12.50;71.15
19600;BME280;9947;57.722;12.012;2023-04-08T14:54:24;102451.31;;;12.40;71.86